createdAt,value
2017-02-12T00:00:20.107Z,1015.05
2017-02-12T00:01:26.209Z,1015.06
2017-02-12T00:02:32.295Z,1015.08
2017-02-12T00:03:38.385Z,1015.09
2017-02-12T00:04:44.483Z,1015.09
2017-02-12T00:05:50.573Z,1015
2017-02-12T00:06:56.697Z,1015.05
2017-02-12T00:08:02.785Z,1015.04
2017-02-12T00:09:06.939Z,1015.11
2017-02-12T00:10:12.080Z,1015.07
2017-02-12T00:11:17.206Z,1014.99
2017-02-12T00:12:22.325Z,1015
2017-02-12T00:13:28.417Z,1015.06
2017-02-12T00:14:34.499Z,1015.01
2017-02-12T00:15:39.616Z,1015.02
2017-02-12T00:16:45.706Z,1015.05
2017-02-12T00:17:50.798Z,1015.02
2017-02-12T00:18:54.017Z,1015.13
2017-02-12T00:20:00.109Z,1015.16
2017-02-12T00:21:05.250Z,1015.18
2017-02-12T00:22:10.360Z,1015.27
2017-02-12T00:23:16.448Z,1015.3
2017-02-12T00:24:21.569Z,1015.25
2017-02-12T00:25:27.660Z,1015.23
2017-02-12T00:26:32.784Z,1015.25
2017-02-12T00:27:36.947Z,1015.14
2017-02-12T00:28:41.070Z,1015.13
2017-02-12T00:29:47.159Z,1015.08
2017-02-12T00:30:53.247Z,1015.13
2017-02-12T00:31:55.442Z,1015.09
2017-02-12T00:33:01.534Z,1015.09
2017-02-12T00:34:07.636Z,1015.1
2017-02-12T00:35:12.752Z,1015.05
2017-02-12T00:36:18.838Z,1015.12
2017-02-12T00:37:24.934Z,1015.12
2017-02-12T00:38:29.093Z,1015.13
2017-02-12T00:39:35.176Z,1015.17
2017-02-12T00:40:38.445Z,1015.22
2017-02-12T00:41:42.626Z,1015.25
2017-02-12T00:42:46.790Z,1015.31
2017-02-12T00:43:50.912Z,1015.31
2017-02-12T00:44:57.007Z,1015.31
2017-02-12T00:46:03.106Z,1015.32
2017-02-12T00:47:09.198Z,1015.29
2017-02-12T00:48:14.323Z,1015.26
2017-02-12T00:49:18.503Z,1015.24
2017-02-12T00:50:24.600Z,1015.24
2017-02-12T00:51:30.703Z,1015.3
2017-02-12T00:52:36.794Z,1015.26
2017-02-12T00:53:42.888Z,1015.34
2017-02-12T00:54:48.987Z,1015.34
2017-02-12T00:55:55.084Z,1015.29
2017-02-12T00:57:00.205Z,1015.24
2017-02-12T00:58:05.334Z,1015.26
2017-02-12T00:59:11.432Z,1015.25
2017-02-12T01:00:16.550Z,1015.25
2017-02-12T01:01:21.628Z,1015.25
2017-02-12T01:02:25.758Z,1015.34
2017-02-12T01:03:31.848Z,1015.36
2017-02-12T01:04:37.940Z,1015.43
2017-02-12T01:05:44.030Z,1015.43
2017-02-12T01:06:50.240Z,1015.44
2017-02-12T01:07:56.329Z,1015.4
2017-02-12T01:09:02.436Z,1015.42
2017-02-12T01:10:07.565Z,1015.4
2017-02-12T01:11:11.728Z,1015.38
2017-02-12T01:12:15.880Z,1015.36
2017-02-12T01:13:19.050Z,1015.34
2017-02-12T01:14:24.183Z,1015.34
2017-02-12T01:15:30.271Z,1015.3
2017-02-12T01:16:36.368Z,1015.32
2017-02-12T01:17:41.526Z,1015.36
2017-02-12T01:18:46.657Z,1015.34
2017-02-12T01:19:50.817Z,1015.36
2017-02-12T01:20:55.994Z,1015.44
2017-02-12T01:22:02.069Z,1015.42
2017-02-12T01:23:07.227Z,1015.43
2017-02-12T01:24:12.354Z,1015.43
2017-02-12T01:25:15.552Z,1015.44
2017-02-12T01:26:20.712Z,1015.48
2017-02-12T01:27:24.864Z,1015.52
2017-02-12T01:28:29.951Z,1015.54
2017-02-12T01:29:36.161Z,1015.54
2017-02-12T01:30:41.242Z,1015.49
2017-02-12T01:31:46.355Z,1015.53
2017-02-12T01:32:50.509Z,1015.55
2017-02-12T01:33:54.639Z,1015.54
2017-02-12T01:34:58.775Z,1015.5
2017-02-12T01:36:03.909Z,1015.45
2017-02-12T01:37:09.993Z,1015.52
2017-02-12T01:38:13.192Z,1015.55
2017-02-12T01:39:18.312Z,1015.5
2017-02-12T01:40:22.463Z,1015.46
2017-02-12T01:41:27.559Z,1015.49
2017-02-12T01:42:33.660Z,1015.48
2017-02-12T01:43:39.762Z,1015.48
2017-02-12T01:44:45.876Z,1015.43
2017-02-12T01:45:51.968Z,1015.44
2017-02-12T01:46:58.075Z,1015.41
2017-02-12T01:48:04.168Z,1015.38
2017-02-12T01:49:09.284Z,1015.43
2017-02-12T01:50:14.406Z,1015.37
2017-02-12T01:51:20.504Z,1015.4
2017-02-12T01:52:25.591Z,1015.41
2017-02-12T01:53:30.713Z,1015.39
2017-02-12T01:54:36.793Z,1015.44
2017-02-12T01:55:42.900Z,1015.4
2017-02-12T01:56:48.021Z,1015.44
2017-02-12T01:57:53.157Z,1015.56
2017-02-12T01:58:59.244Z,1015.56
2017-02-12T02:00:05.395Z,1015.57
2017-02-12T02:01:09.556Z,1015.56
2017-02-12T02:02:14.684Z,1015.6
2017-02-12T02:03:19.780Z,1015.62
2017-02-12T02:04:24.896Z,1015.55
2017-02-12T02:05:30.013Z,1015.61
2017-02-12T02:06:34.134Z,1015.62
2017-02-12T02:07:39.252Z,1015.6
2017-02-12T02:08:44.380Z,1015.59
2017-02-12T02:09:50.477Z,1015.62
2017-02-12T02:10:55.653Z,1015.58
2017-02-12T02:12:01.720Z,1015.59
2017-02-12T02:13:06.827Z,1015.67
2017-02-12T02:14:10.016Z,1015.67
2017-02-12T02:15:15.144Z,1015.69
2017-02-12T02:16:20.272Z,1015.65
2017-02-12T02:17:24.445Z,1015.67
2017-02-12T02:18:30.535Z,1015.7
2017-02-12T02:19:34.692Z,1015.72
2017-02-12T02:20:39.822Z,1015.73
2017-02-12T02:21:44.907Z,1015.73
2017-02-12T02:22:51.007Z,1015.74
2017-02-12T02:23:57.100Z,1015.73
2017-02-12T02:25:02.219Z,1015.71
2017-02-12T02:26:08.314Z,1015.72
2017-02-12T02:27:11.523Z,1015.69
2017-02-12T02:28:16.626Z,1015.69
2017-02-12T02:29:22.715Z,1015.63
2017-02-12T02:30:28.801Z,1015.7
2017-02-12T02:31:34.934Z,1015.69
2017-02-12T02:32:40.047Z,1015.7
2017-02-12T02:33:44.199Z,1015.66
2017-02-12T02:34:49.325Z,1015.69
2017-02-12T02:35:55.420Z,1015.63
2017-02-12T02:37:01.512Z,1015.75
2017-02-12T02:38:07.595Z,1015.75
2017-02-12T02:39:13.696Z,1015.74
2017-02-12T02:40:18.796Z,1015.74
2017-02-12T02:41:24.873Z,1015.75
2017-02-12T02:42:30.962Z,1015.7
2017-02-12T02:43:36.087Z,1015.72
2017-02-12T02:44:41.174Z,1015.78
2017-02-12T02:45:47.288Z,1015.78
2017-02-12T02:46:53.380Z,1015.78
2017-02-12T02:47:59.474Z,1015.73
2017-02-12T02:49:05.567Z,1015.77
2017-02-12T02:50:10.685Z,1015.75
2017-02-12T02:51:14.845Z,1015.82
2017-02-12T02:52:19.944Z,1015.83
2017-02-12T02:53:26.042Z,1015.77
2017-02-12T02:54:32.117Z,1015.79
2017-02-12T02:55:37.239Z,1015.88
2017-02-12T02:56:43.331Z,1015.83
2017-02-12T02:57:49.422Z,1015.88
2017-02-12T02:58:55.510Z,1015.92
2017-02-12T03:00:00.611Z,1015.94
2017-02-12T03:01:05.735Z,1015.93
2017-02-12T03:02:11.823Z,1015.97
2017-02-12T03:03:17.916Z,1015.99
2017-02-12T03:04:24.014Z,1015.99
2017-02-12T03:05:28.202Z,1015.97
2017-02-12T03:06:34.263Z,1015.93
2017-02-12T03:07:39.384Z,1015.96
2017-02-12T03:08:45.529Z,1015.96
2017-02-12T03:09:51.613Z,1015.98
2017-02-12T03:10:55.747Z,1015.92
2017-02-12T03:12:00.857Z,1015.91
2017-02-12T03:13:06.943Z,1015.9
2017-02-12T03:14:12.062Z,1015.87
2017-02-12T03:15:18.148Z,1015.91
2017-02-12T03:16:24.241Z,1015.98
2017-02-12T03:17:29.361Z,1015.92
2017-02-12T03:18:35.459Z,1015.95
2017-02-12T03:19:40.577Z,1016.05
2017-02-12T03:20:44.698Z,1016.05
2017-02-12T03:21:48.839Z,1016.09
2017-02-12T03:22:54.933Z,1016.11
2017-02-12T03:24:00.023Z,1016.11
2017-02-12T03:25:04.142Z,1016.15
2017-02-12T03:26:09.270Z,1016.15
2017-02-12T03:27:14.471Z,1016.17
2017-02-12T03:28:18.658Z,1016.14
2017-02-12T03:29:23.745Z,1016.17
2017-02-12T03:30:28.939Z,1016.13
2017-02-12T03:31:35.007Z,1016.16
2017-02-12T03:32:40.129Z,1016.1
2017-02-12T03:33:46.217Z,1016.06
2017-02-12T03:34:51.343Z,1016.04
2017-02-12T03:35:57.504Z,1016.1
2017-02-12T03:37:01.634Z,1016.04
2017-02-12T03:38:07.723Z,1016.11
2017-02-12T03:39:13.815Z,1016.13
2017-02-12T03:40:17.995Z,1016.15
2017-02-12T03:41:23.109Z,1016.13
2017-02-12T03:42:29.180Z,1016.14
2017-02-12T03:43:35.267Z,1016.06
2017-02-12T03:44:39.423Z,1016.1
2017-02-12T03:45:44.533Z,1016.03
2017-02-12T03:46:49.655Z,1016.02
2017-02-12T03:47:55.752Z,1015.97
2017-02-12T03:49:00.855Z,1016
2017-02-12T03:50:05.081Z,1016.02
2017-02-12T03:51:09.229Z,1016.02
2017-02-12T03:52:15.323Z,1016.02
2017-02-12T03:53:21.409Z,1016.05
2017-02-12T03:54:27.512Z,1016.01
2017-02-12T03:55:32.634Z,1016.08
2017-02-12T03:56:38.727Z,1016.09
2017-02-12T03:57:43.875Z,1016.1
2017-02-12T03:58:49.955Z,1016.11
2017-02-12T03:59:54.106Z,1016.13
2017-02-12T04:00:59.196Z,1016.05
2017-02-12T04:02:05.297Z,1016.12
2017-02-12T04:03:11.432Z,1016.22
2017-02-12T04:04:17.523Z,1016.18
2017-02-12T04:05:21.687Z,1016.15
2017-02-12T04:06:26.813Z,1016.16
2017-02-12T04:07:31.936Z,1016.2
2017-02-12T04:08:38.029Z,1016.18
2017-02-12T04:09:43.207Z,1016.27
2017-02-12T04:10:48.332Z,1016.28
2017-02-12T04:11:52.462Z,1016.29
2017-02-12T04:12:57.553Z,1016.37
2017-02-12T04:14:01.680Z,1016.36
2017-02-12T04:15:07.772Z,1016.44
2017-02-12T04:16:11.930Z,1016.47
2017-02-12T04:17:18.031Z,1016.49
2017-02-12T04:18:23.122Z,1016.48
2017-02-12T04:19:27.244Z,1016.45
2017-02-12T04:20:32.374Z,1016.46
2017-02-12T04:21:38.461Z,1016.43
2017-02-12T04:22:43.649Z,1016.43
2017-02-12T04:23:48.755Z,1016.5
2017-02-12T04:24:52.903Z,1016.46
2017-02-12T04:25:57.054Z,1016.42
2017-02-12T04:27:02.174Z,1016.42
2017-02-12T04:28:07.301Z,1016.44
2017-02-12T04:29:12.459Z,1016.48
2017-02-12T04:30:18.513Z,1016.45
2017-02-12T04:31:24.604Z,1016.49
2017-02-12T04:32:29.705Z,1016.56
2017-02-12T04:33:33.886Z,1016.61
2017-02-12T04:34:39.959Z,1016.6
2017-02-12T04:35:46.053Z,1016.6
2017-02-12T04:36:52.140Z,1016.63
2017-02-12T04:37:58.219Z,1016.65
2017-02-12T04:39:03.306Z,1016.62
2017-02-12T04:40:09.403Z,1016.68
2017-02-12T04:41:14.622Z,1016.67
2017-02-12T04:42:17.797Z,1016.62
2017-02-12T04:43:21.943Z,1016.57
2017-02-12T04:44:28.080Z,1016.65
2017-02-12T04:45:32.232Z,1016.57
2017-02-12T04:46:38.320Z,1016.6
2017-02-12T04:47:43.441Z,1016.6
2017-02-12T04:48:47.587Z,1016.66
2017-02-12T04:49:52.713Z,1016.69
2017-02-12T04:50:58.804Z,1016.67
2017-02-12T04:52:04.894Z,1016.64
2017-02-12T04:53:10.978Z,1016.73
2017-02-12T04:54:15.141Z,1016.72
2017-02-12T04:55:21.250Z,1016.71
2017-02-12T04:56:26.356Z,1016.69
2017-02-12T04:57:30.513Z,1016.64
2017-02-12T04:58:36.610Z,1016.82
2017-02-12T04:59:41.733Z,1016.75
2017-02-12T05:00:46.830Z,1016.78
2017-02-12T05:01:52.952Z,1016.79
2017-02-12T05:02:57.055Z,1016.83
2017-02-12T05:04:03.156Z,1016.87
2017-02-12T05:05:09.272Z,1016.89
2017-02-12T05:06:15.344Z,1016.92
2017-02-12T05:07:20.481Z,1016.92
2017-02-12T05:08:26.574Z,1016.92
2017-02-12T05:09:30.696Z,1016.86
2017-02-12T05:10:35.923Z,1016.81
2017-02-12T05:11:42.001Z,1016.79
2017-02-12T05:12:47.092Z,1016.77
2017-02-12T05:13:52.211Z,1016.77
2017-02-12T05:14:58.308Z,1016.78
2017-02-12T05:16:04.398Z,1016.82
2017-02-12T05:17:09.535Z,1016.87
2017-02-12T05:18:15.626Z,1016.93
2017-02-12T05:19:19.777Z,1016.88
2017-02-12T05:20:25.858Z,1016.84
2017-02-12T05:21:29.982Z,1016.8
2017-02-12T05:22:35.109Z,1016.79
2017-02-12T05:23:41.216Z,1016.79
2017-02-12T05:24:47.304Z,1016.78
2017-02-12T05:25:52.398Z,1016.84
2017-02-12T05:26:56.551Z,1016.83
2017-02-12T05:28:01.679Z,1016.86
2017-02-12T05:29:07.764Z,1016.88
2017-02-12T05:30:13.954Z,1016.92
2017-02-12T05:31:18.996Z,1016.81
2017-02-12T05:32:23.202Z,1016.89
2017-02-12T05:33:28.352Z,1016.82
2017-02-12T05:34:31.515Z,1016.86
2017-02-12T05:35:37.609Z,1016.97
2017-02-12T05:36:41.741Z,1017.02
2017-02-12T05:37:46.838Z,1017.06
2017-02-12T05:38:51.970Z,1017.17
2017-02-12T05:39:58.057Z,1017.15
2017-02-12T05:41:04.250Z,1017.09
2017-02-12T05:42:10.334Z,1017.12
2017-02-12T05:43:15.458Z,1017.18
2017-02-12T05:44:20.578Z,1017.26
2017-02-12T05:45:25.675Z,1017.3
2017-02-12T05:46:31.761Z,1017.3
2017-02-12T05:47:36.880Z,1017.31
2017-02-12T05:48:42.969Z,1017.36
2017-02-12T05:49:49.051Z,1017.43
2017-02-12T05:50:55.167Z,1017.48
2017-02-12T05:52:01.257Z,1017.47
2017-02-12T05:53:07.344Z,1017.62
2017-02-12T05:54:13.436Z,1017.47
2017-02-12T05:55:19.535Z,1017.52
2017-02-12T05:56:22.693Z,1017.44
2017-02-12T05:57:27.815Z,1017.53
2017-02-12T05:58:32.952Z,1017.54
2017-02-12T05:59:38.092Z,1017.67
2017-02-12T06:00:43.222Z,1017.65
2017-02-12T06:01:48.333Z,1017.64
2017-02-12T06:02:51.498Z,1017.64
2017-02-12T06:03:54.782Z,1017.64
2017-02-12T06:05:00.857Z,1017.53
2017-02-12T06:06:05.980Z,1017.61
2017-02-12T06:07:12.080Z,1017.55
2017-02-12T06:08:17.263Z,1017.61
2017-02-12T06:09:21.414Z,1017.61
2017-02-12T06:10:27.499Z,1017.54
2017-02-12T06:11:32.619Z,1017.48
2017-02-12T06:12:38.708Z,1017.41
2017-02-12T06:13:42.825Z,1017.55
2017-02-12T06:14:47.917Z,1017.45
2017-02-12T06:15:52.119Z,1017.36
2017-02-12T06:16:57.230Z,1017.37
2017-02-12T06:18:01.381Z,1017.41
2017-02-12T06:19:05.504Z,1017.3
2017-02-12T06:20:10.627Z,1017.33
2017-02-12T06:21:15.729Z,1017.39
2017-02-12T06:22:20.848Z,1017.43
2017-02-12T06:23:25.963Z,1017.44
2017-02-12T06:24:31.148Z,1017.5
2017-02-12T06:25:36.242Z,1017.52
2017-02-12T06:26:42.335Z,1017.56
2017-02-12T06:27:46.479Z,1017.51
2017-02-12T06:28:52.574Z,1017.51
2017-02-12T06:29:57.696Z,1017.51
2017-02-12T06:31:03.804Z,1017.54
2017-02-12T06:32:08.932Z,1017.51
2017-02-12T06:33:15.007Z,1017.49
2017-02-12T06:34:21.117Z,1017.53
2017-02-12T06:35:27.273Z,1017.57
2017-02-12T06:36:33.314Z,1017.66
2017-02-12T06:37:38.534Z,1017.74
2017-02-12T06:38:44.624Z,1017.75
2017-02-12T06:39:49.755Z,1017.78
2017-02-12T06:40:54.842Z,1017.73
2017-02-12T06:42:00.930Z,1017.7
2017-02-12T06:43:04.135Z,1017.74
2017-02-12T06:44:10.206Z,1017.74
2017-02-12T06:45:14.400Z,1017.76
2017-02-12T06:46:19.466Z,1017.74
2017-02-12T06:47:24.647Z,1017.81
2017-02-12T06:48:30.739Z,1017.85
2017-02-12T06:49:34.911Z,1017.84
2017-02-12T06:50:41.002Z,1017.97
2017-02-12T06:51:44.156Z,1017.84
2017-02-12T06:52:50.241Z,1017.91
2017-02-12T06:53:56.342Z,1017.93
2017-02-12T06:55:01.464Z,1018
2017-02-12T06:56:07.554Z,1018.04
2017-02-12T06:57:12.670Z,1018.02
2017-02-12T06:58:18.761Z,1018.06
2017-02-12T06:59:24.846Z,1018.05
2017-02-12T07:00:30.992Z,1018.1
2017-02-12T07:01:36.115Z,1018.06
2017-02-12T07:02:42.214Z,1018.07
2017-02-12T07:03:47.342Z,1018
2017-02-12T07:04:51.498Z,1018.04
2017-02-12T07:05:57.591Z,1018.02
2017-02-12T07:07:02.718Z,1018.03
2017-02-12T07:08:08.811Z,1018.1
2017-02-12T07:09:14.909Z,1018.05
2017-02-12T07:10:20.031Z,1018.04
2017-02-12T07:11:24.191Z,1018.1
2017-02-12T07:12:29.307Z,1018.1
2017-02-12T07:13:34.437Z,1018.07
2017-02-12T07:14:40.527Z,1018.05
2017-02-12T07:15:45.643Z,1017.99
2017-02-12T07:16:51.743Z,1018
2017-02-12T07:17:56.864Z,1017.98
2017-02-12T07:19:02.952Z,1018.08
2017-02-12T07:20:08.082Z,1018.15
2017-02-12T07:21:13.208Z,1018.31
2017-02-12T07:22:18.329Z,1018.29
2017-02-12T07:23:24.428Z,1018.29
2017-02-12T07:24:28.548Z,1018.38
2017-02-12T07:25:33.670Z,1018.38
2017-02-12T07:26:38.795Z,1018.35
2017-02-12T07:27:42.946Z,1018.31
2017-02-12T07:28:49.035Z,1018.39
2017-02-12T07:29:55.137Z,1018.35
2017-02-12T07:31:01.433Z,1018.4
2017-02-12T07:32:07.596Z,1018.52
2017-02-12T07:33:13.691Z,1018.51
2017-02-12T07:34:19.768Z,1018.51
2017-02-12T07:35:24.891Z,1018.52
2017-02-12T07:36:30.994Z,1018.57
2017-02-12T07:37:36.088Z,1018.45
2017-02-12T07:38:42.170Z,1018.57
2017-02-12T07:39:48.276Z,1018.65
2017-02-12T07:40:53.398Z,1018.64
2017-02-12T07:41:58.511Z,1018.83
2017-02-12T07:43:04.591Z,1018.62
2017-02-12T07:44:08.834Z,1018.62
2017-02-12T07:45:11.031Z,1018.66
2017-02-12T07:46:16.165Z,1018.66
2017-02-12T07:47:20.320Z,1018.63
2017-02-12T07:48:25.429Z,1018.6
2017-02-12T07:49:30.549Z,1018.7
2017-02-12T07:50:34.677Z,1018.71
2017-02-12T07:51:40.786Z,1018.73
2017-02-12T07:52:45.884Z,1018.77
2017-02-12T07:53:49.047Z,1018.77
2017-02-12T07:54:55.132Z,1018.8
2017-02-12T07:55:59.295Z,1018.78
2017-02-12T07:57:05.392Z,1018.87
2017-02-12T07:58:11.486Z,1018.79
2017-02-12T07:59:17.572Z,1018.82
2017-02-12T08:00:23.668Z,1018.81
2017-02-12T08:01:29.766Z,1018.81
2017-02-12T08:02:35.852Z,1018.8
2017-02-12T08:03:41.952Z,1018.78
2017-02-12T08:04:46.105Z,1018.82
2017-02-12T08:05:52.207Z,1018.84
2017-02-12T08:06:58.295Z,1018.87
2017-02-12T08:08:03.439Z,1018.86
2017-02-12T08:09:09.522Z,1018.85
2017-02-12T08:10:13.683Z,1018.94
2017-02-12T08:11:19.785Z,1018.94
2017-02-12T08:12:24.902Z,1019
2017-02-12T08:13:30.993Z,1019.01
2017-02-12T08:14:36.120Z,1019.06
2017-02-12T08:15:41.271Z,1019.09
2017-02-12T08:16:46.377Z,1019.06
2017-02-12T08:17:51.468Z,1019.07
2017-02-12T08:18:55.638Z,1019.09
2017-02-12T08:19:58.795Z,1019.12
2017-02-12T08:21:03.923Z,1019.2
2017-02-12T08:22:10.017Z,1019.25
2017-02-12T08:23:16.114Z,1019.11
2017-02-12T08:24:20.274Z,1019.19
2017-02-12T08:25:25.386Z,1019.31
2017-02-12T08:26:31.481Z,1019.25
2017-02-12T08:27:36.570Z,1019.28
2017-02-12T08:28:42.723Z,1019.27
2017-02-12T08:29:45.911Z,1019.29
2017-02-12T08:30:51.987Z,1019.19
2017-02-12T08:31:58.081Z,1019.19
2017-02-12T08:33:04.169Z,1019.34
2017-02-12T08:34:10.259Z,1019.32
2017-02-12T08:35:16.361Z,1019.35
2017-02-12T08:36:22.477Z,1019.32
2017-02-12T08:37:28.675Z,1019.34
2017-02-12T08:38:34.775Z,1019.33
2017-02-12T08:39:39.898Z,1019.41
2017-02-12T08:40:45.045Z,1019.32
2017-02-12T08:41:51.110Z,1019.38
2017-02-12T08:42:55.236Z,1019.36
2017-02-12T08:44:00.328Z,1019.42
2017-02-12T08:45:05.425Z,1019.47
2017-02-12T08:46:09.590Z,1019.52
2017-02-12T08:47:15.702Z,1019.49
2017-02-12T08:48:19.846Z,1019.51
2017-02-12T08:49:24.932Z,1019.5
2017-02-12T08:50:31.152Z,1019.51
2017-02-12T08:51:37.232Z,1019.72
2017-02-12T08:52:42.362Z,1019.47
2017-02-12T08:53:48.460Z,1019.52
2017-02-12T08:54:53.679Z,1019.47
2017-02-12T08:55:57.951Z,1019.52
2017-02-12T08:57:03.083Z,1019.53
2017-02-12T08:58:08.173Z,1019.57
2017-02-12T08:59:11.355Z,1019.6
2017-02-12T09:00:15.493Z,1019.61
2017-02-12T09:01:20.622Z,1019.71
2017-02-12T09:02:26.714Z,1019.66
2017-02-12T09:03:30.890Z,1019.7
2017-02-12T09:04:36.003Z,1019.77
2017-02-12T09:05:42.097Z,1019.77
2017-02-12T09:06:47.211Z,1019.6
2017-02-12T09:07:52.329Z,1019.69
2017-02-12T09:08:58.428Z,1019.67
2017-02-12T09:10:02.589Z,1019.68
2017-02-12T09:11:08.687Z,1019.74
2017-02-12T09:12:14.776Z,1019.85
2017-02-12T09:13:20.927Z,1019.81
2017-02-12T09:14:26.065Z,1019.81
2017-02-12T09:15:32.146Z,1019.74
2017-02-12T09:16:37.245Z,1019.87
2017-02-12T09:17:42.372Z,1019.75
2017-02-12T09:18:48.477Z,1019.89
2017-02-12T09:19:53.602Z,1019.83
2017-02-12T09:20:57.751Z,1019.85
2017-02-12T09:22:01.910Z,1019.9
2017-02-12T09:23:05.059Z,1019.96
2017-02-12T09:24:09.205Z,1019.84
2017-02-12T09:25:14.337Z,1019.95
2017-02-12T09:26:18.492Z,1019.95
2017-02-12T09:27:24.588Z,1019.95
2017-02-12T09:28:30.676Z,1020.03
2017-02-12T09:29:36.760Z,1020.14
2017-02-12T09:30:42.858Z,1020.05
2017-02-12T09:31:47.011Z,1020.06
2017-02-12T09:32:52.111Z,1020.02
2017-02-12T09:33:58.212Z,1020.09
2017-02-12T09:35:04.306Z,1020.04
2017-02-12T09:36:09.455Z,1020.05
2017-02-12T09:37:14.588Z,1019.93
2017-02-12T09:38:20.686Z,1019.96
2017-02-12T09:39:24.857Z,1019.97
2017-02-12T09:40:29.994Z,1019.91
2017-02-12T09:41:35.143Z,1020.02
2017-02-12T09:42:41.238Z,1020.02
2017-02-12T09:43:45.521Z,1020.03
2017-02-12T09:44:49.679Z,1020.04
2017-02-12T09:45:52.845Z,1020.08
2017-02-12T09:46:57.979Z,1020.09
2017-02-12T09:48:04.164Z,1020.09
2017-02-12T09:49:10.224Z,1020.1
2017-02-12T09:50:15.336Z,1020.09
2017-02-12T09:51:19.495Z,1020.18
2017-02-12T09:52:24.621Z,1020.08
2017-02-12T09:53:30.710Z,1020.08
2017-02-12T09:54:35.898Z,1020.18
2017-02-12T09:55:41.939Z,1020.2
2017-02-12T09:56:47.109Z,1020.11
2017-02-12T09:57:51.263Z,1019.99
2017-02-12T09:58:56.460Z,1020.16
2017-02-12T10:00:01.611Z,1020.2
2017-02-12T10:01:07.684Z,1020.2
2017-02-12T10:02:13.895Z,1020.18
2017-02-12T10:03:19.984Z,1020.25
2017-02-12T10:04:26.138Z,1020.2
2017-02-12T10:05:30.212Z,1020.43
2017-02-12T10:06:36.307Z,1020.25
2017-02-12T10:07:42.410Z,1020.31
2017-02-12T10:08:48.495Z,1020.2
2017-02-12T10:09:53.620Z,1020.3
2017-02-12T10:10:59.753Z,1020.29
2017-02-12T10:12:05.846Z,1020.47
2017-02-12T10:13:11.934Z,1020.47
2017-02-12T10:14:16.070Z,1020.4
2017-02-12T10:15:21.167Z,1020.47
2017-02-12T10:16:27.314Z,1020.41
2017-02-12T10:17:31.429Z,1020.41
2017-02-12T10:18:35.556Z,1020.54
2017-02-12T10:19:38.722Z,1020.46
2017-02-12T10:20:42.890Z,1020.65
2017-02-12T10:21:47.064Z,1020.67
2017-02-12T10:22:52.183Z,1020.64
2017-02-12T10:23:58.283Z,1020.59
2017-02-12T10:25:03.376Z,1020.6
2017-02-12T10:26:09.482Z,1020.63
2017-02-12T10:27:13.645Z,1020.57
2017-02-12T10:28:19.745Z,1020.61
2017-02-12T10:29:24.857Z,1020.6
2017-02-12T10:30:30.948Z,1020.7
2017-02-12T10:31:36.064Z,1020.67
2017-02-12T10:32:42.182Z,1020.58
2017-02-12T10:33:47.337Z,1020.63
2017-02-12T10:34:52.474Z,1020.57
2017-02-12T10:35:56.600Z,1020.6
2017-02-12T10:37:01.733Z,1020.62
2017-02-12T10:38:07.841Z,1020.65
2017-02-12T10:39:12.967Z,1020.72
2017-02-12T10:40:18.196Z,1020.64
2017-02-12T10:41:23.226Z,1020.85
2017-02-12T10:42:27.396Z,1020.74
2017-02-12T10:43:33.505Z,1020.81
2017-02-12T10:44:38.630Z,1020.9
2017-02-12T10:45:43.762Z,1020.85
2017-02-12T10:46:49.871Z,1020.91
2017-02-12T10:47:55.997Z,1020.79
2017-02-12T10:49:02.100Z,1020.8
2017-02-12T10:50:07.221Z,1020.83
2017-02-12T10:51:11.359Z,1020.78
2017-02-12T10:52:17.466Z,1020.89
2017-02-12T10:53:23.577Z,1020.75
2017-02-12T10:54:27.741Z,1020.84
2017-02-12T10:55:31.898Z,1020.8
2017-02-12T10:56:37.036Z,1020.86
2017-02-12T10:57:43.135Z,1020.9
2017-02-12T10:58:49.244Z,1020.88
2017-02-12T10:59:54.367Z,1020.91
2017-02-12T11:01:00.470Z,1020.88
2017-02-12T11:02:05.600Z,1020.85
2017-02-12T11:03:10.729Z,1020.78
2017-02-12T11:04:15.831Z,1020.85
2017-02-12T11:05:21.951Z,1020.81
2017-02-12T11:06:28.047Z,1020.87
2017-02-12T11:07:33.155Z,1020.86
2017-02-12T11:08:39.259Z,1020.9
2017-02-12T11:09:44.395Z,1020.8
2017-02-12T11:10:49.531Z,1020.83
2017-02-12T11:11:54.670Z,1021.04
2017-02-12T11:12:59.791Z,1020.83
2017-02-12T11:14:05.891Z,1020.86
2017-02-12T11:15:11.022Z,1020.9
2017-02-12T11:16:17.119Z,1020.94
2017-02-12T11:17:22.251Z,1020.92
2017-02-12T11:18:28.478Z,1021.01
2017-02-12T11:19:34.582Z,1020.95
2017-02-12T11:20:40.687Z,1020.84
2017-02-12T11:21:45.819Z,1020.91
2017-02-12T11:22:51.913Z,1020.85
2017-02-12T11:23:58.019Z,1020.82
2017-02-12T11:25:03.139Z,1020.92
2017-02-12T11:26:08.271Z,1020.89
2017-02-12T11:27:13.402Z,1020.92
2017-02-12T11:28:17.578Z,1020.92
2017-02-12T11:29:22.706Z,1020.89
2017-02-12T11:30:26.859Z,1020.85
2017-02-12T11:31:32.959Z,1020.83
2017-02-12T11:32:39.058Z,1020.83
2017-02-12T11:33:44.191Z,1020.83
2017-02-12T11:34:49.282Z,1020.86
2017-02-12T11:35:54.411Z,1020.89
2017-02-12T11:36:58.577Z,1020.87
2017-02-12T11:38:01.741Z,1020.85
2017-02-12T11:39:07.842Z,1020.83
2017-02-12T11:40:13.960Z,1020.84
2017-02-12T11:41:18.113Z,1020.93
2017-02-12T11:42:24.198Z,1020.82
2017-02-12T11:43:29.327Z,1020.81
2017-02-12T11:44:35.427Z,1020.86
2017-02-12T11:45:41.536Z,1020.81
2017-02-12T11:46:47.667Z,1020.83
2017-02-12T11:47:52.799Z,1020.89
2017-02-12T11:48:57.942Z,1020.79
2017-02-12T11:50:04.032Z,1020.82
2017-02-12T11:51:10.125Z,1020.81
2017-02-12T11:52:16.224Z,1020.97
2017-02-12T11:53:21.349Z,1020.81
2017-02-12T11:54:24.539Z,1020.77
2017-02-12T11:55:29.649Z,1020.85
2017-02-12T11:56:35.742Z,1020.81
2017-02-12T11:57:40.869Z,1020.83
2017-02-12T11:58:45.967Z,1020.8
2017-02-12T11:59:51.102Z,1020.83
2017-02-12T12:00:56.225Z,1020.78
2017-02-12T12:02:01.354Z,1020.76
2017-02-12T12:03:06.479Z,1020.84
2017-02-12T12:04:11.600Z,1020.88
2017-02-12T12:05:17.692Z,1020.81
2017-02-12T12:06:23.788Z,1020.86
2017-02-12T12:07:29.890Z,1020.85
2017-02-12T12:08:34.986Z,1020.88
2017-02-12T12:09:41.086Z,1020.8
2017-02-12T12:10:46.194Z,1020.84
2017-02-12T12:11:52.281Z,1020.77
2017-02-12T12:12:58.380Z,1020.74
2017-02-12T12:14:03.504Z,1020.77
2017-02-12T12:15:08.640Z,1020.71
2017-02-12T12:16:14.734Z,1020.69
2017-02-12T12:17:18.898Z,1020.69
2017-02-12T12:18:23.059Z,1020.64
2017-02-12T12:19:27.203Z,1020.66
2017-02-12T12:20:31.377Z,1020.82
2017-02-12T12:21:37.447Z,1020.71
2017-02-12T12:22:43.548Z,1020.75
2017-02-12T12:23:49.651Z,1020.8
2017-02-12T12:24:53.775Z,1020.8
2017-02-12T12:25:58.915Z,1020.72
2017-02-12T12:27:05.019Z,1020.77
2017-02-12T12:28:11.123Z,1020.72
2017-02-12T12:29:15.281Z,1020.74
2017-02-12T12:30:20.414Z,1020.77
2017-02-12T12:31:25.520Z,1020.51
2017-02-12T12:32:31.631Z,1020.78
2017-02-12T12:33:35.752Z,1020.74
2017-02-12T12:34:39.930Z,1020.7
2017-02-12T12:35:44.092Z,1020.76
2017-02-12T12:36:50.178Z,1020.75
2017-02-12T12:37:56.267Z,1020.78
2017-02-12T12:39:01.407Z,1020.78
2017-02-12T12:40:06.533Z,1020.8
2017-02-12T12:41:12.724Z,1020.78
2017-02-12T12:42:18.823Z,1020.88
2017-02-12T12:43:24.932Z,1020.79
2017-02-12T12:44:29.105Z,1020.97
2017-02-12T12:45:35.208Z,1020.97
2017-02-12T12:46:40.336Z,1020.91
2017-02-12T12:47:46.468Z,1020.89
2017-02-12T12:48:50.603Z,1020.86
2017-02-12T12:49:56.677Z,1020.94
2017-02-12T12:51:02.779Z,1020.88
2017-02-12T12:52:08.877Z,1020.94
2017-02-12T12:53:14.976Z,1020.9
2017-02-12T12:54:20.120Z,1020.95
2017-02-12T12:55:25.229Z,1020.97
2017-02-12T12:56:31.323Z,1021.07
2017-02-12T12:57:36.485Z,1020.96
2017-02-12T12:58:42.553Z,1020.87
2017-02-12T12:59:46.729Z,1020.87
2017-02-12T13:00:52.916Z,1020.87
2017-02-12T13:01:59.008Z,1020.82
2017-02-12T13:03:04.130Z,1020.82
2017-02-12T13:04:09.229Z,1020.85
2017-02-12T13:05:15.393Z,1020.94
2017-02-12T13:06:21.512Z,1020.86
2017-02-12T13:07:27.598Z,1020.86
2017-02-12T13:08:33.691Z,1020.89
2017-02-12T13:09:38.823Z,1021.02
2017-02-12T13:10:44.909Z,1020.8
2017-02-12T13:11:49.067Z,1020.78
2017-02-12T13:12:54.195Z,1020.68